Time;durP1;ratioP1;P1;durP2;ratioP2;P2;SDS_P1;SDS_P2;PMS_P1;PMS_P2;Temp;Humidity;BMP_temperature;BMP_pressure;BME280_temperature;BME280_humidity;BME280_pressure;Samples;Min_cycle;Max_cycle;Signal;HPM_P1;HPM_P2
2022/05/06 00:01:32;;;;;;;17.30;11.40;;;;;;;;;;4819937;29;20045;-80
2022/05/06 00:03:57;;;;;;;18.05;11.23;;;;;;;;;;4832926;29;20124;-79
2022/05/06 00:06:25;;;;;;;19.27;11.95;;;;;;;;;;4833796;29;20378;-83
2022/05/06 00:08:50;;;;;;;16.90;11.35;;;;;;;;;;4821746;29;21277;-83
2022/05/06 00:11:15;;;;;;;17.55;11.27;;;;;;;;;;4820365;29;20080;-81
2022/05/06 00:13:41;;;;;;;16.50;11.10;;;;;;;;;;4814948;29;20138;-83
2022/05/06 00:16:07;;;;;;;18.20;11.65;;;;;;;;;;4819588;29;20094;-84
2022/05/06 00:18:33;;;;;;;19.65;11.75;;;;;;;;;;4814282;29;20551;-80
2022/05/06 00:20:58;;;;;;;18.08;11.68;;;;;;;;;;4815041;29;20037;-80
2022/05/06 00:23:23;;;;;;;18.15;11.32;;;;;;;;;;4818797;29;20516;-84
2022/05/06 00:25:49;;;;;;;15.60;10.40;;;;;;;;;;4818899;29;20026;-80
2022/05/06 00:28:15;;;;;;;17.45;10.75;;;;;;;;;;4815506;29;20391;-84
2022/05/06 00:30:41;;;;;;;16.92;10.95;;;;;;;;;;4818603;29;20042;-85
2022/05/06 00:33:09;;;;;;;15.65;10.57;;;;;;;;;;4819016;29;20382;-84
2022/05/06 00:35:34;;;;;;;16.42;10.40;;;;;;;;;;4819995;29;20037;-84
2022/05/06 00:38:00;;;;;;;15.35;9.75;;;;;;;;;;4835654;29;20042;-84
2022/05/06 00:40:25;;;;;;;15.00;10.63;;;;;;;;;;4830493;29;20069;-80
2022/05/06 00:42:51;;;;;;;17.17;11.57;;;;;;;;;;4829700;29;20784;-82
2022/05/06 00:45:17;;;;;;;15.80;11.68;;;;;;;;;;4840919;29;20116;-79
2022/05/06 00:47:43;;;;;;;17.98;11.93;;;;;;;;;;4849885;29;20034;-83
2022/05/06 00:50:09;;;;;;;16.20;11.43;;;;;;;;;;4834617;29;20029;-79
2022/05/06 00:52:36;;;;;;;18.33;12.27;;;;;;;;;;4836601;29;20066;-84
2022/05/06 00:55:03;;;;;;;17.75;11.23;;;;;;;;;;4849842;29;20025;-83
2022/05/06 00:57:30;;;;;;;17.02;11.82;;;;;;;;;;4835401;29;20093;-84
2022/05/06 01:02:40;;;;;;;15.80;11.60;;;;;;;;;;4852629;29;20040;-83
2022/05/06 01:05:07;;;;;;;17.20;11.48;;;;;;;;;;4839725;29;20543;-81
2022/05/06 01:07:33;;;;;;;19.13;13.00;;;;;;;;;;4835064;29;20025;-83
2022/05/06 01:09:59;;;;;;;19.10;13.65;;;;;;;;;;4838749;29;20128;-81
2022/05/06 01:12:24;;;;;;;19.38;13.77;;;;;;;;;;4850046;29;20056;-80
2022/05/06 01:14:49;;;;;;;18.65;13.32;;;;;;;;;;4836403;29;20034;-80
2022/05/06 01:17:16;;;;;;;19.20;13.57;;;;;;;;;;4839093;29;20102;-79
2022/05/06 01:19:41;;;;;;;18.50;13.68;;;;;;;;;;4855375;29;20064;-81
2022/05/06 01:22:07;;;;;;;19.02;14.02;;;;;;;;;;4848510;29;20057;-79
2022/05/06 01:24:32;;;;;;;20.08;13.85;;;;;;;;;;4852525;29;20049;-81
2022/05/06 01:27:02;;;;;;;18.38;13.27;;;;;;;;;;4854375;29;20026;-84
2022/05/06 01:29:30;;;;;;;19.55;13.05;;;;;;;;;;4852091;29;20041;-80
2022/05/06 01:31:56;;;;;;;19.40;12.15;;;;;;;;;;4834315;29;20090;-79
2022/05/06 01:34:24;;;;;;;16.38;10.65;;;;;;;;;;4850753;29;20033;-84
2022/05/06 01:36:52;;;;;;;15.32;10.38;;;;;;;;;;4840456;29;20507;-84
2022/05/06 01:39:20;;;;;;;15.00;10.25;;;;;;;;;;4851288;29;20041;-79
2022/05/06 01:41:51;;;;;;;14.95;10.77;;;;;;;;;;4853293;29;20053;-84
2022/05/06 01:44:18;;;;;;;14.75;10.25;;;;;;;;;;4840518;29;20121;-84
2022/05/06 01:46:44;;;;;;;18.60;11.68;;;;;;;;;;4836718;29;20026;-83
2022/05/06 01:49:11;;;;;;;16.85;11.63;;;;;;;;;;4850525;29;20082;-81
2022/05/06 01:51:39;;;;;;;16.77;11.02;;;;;;;;;;4837003;29;20033;-83
2022/05/06 01:54:05;;;;;;;16.00;10.60;;;;;;;;;;4848247;29;20037;-81
2022/05/06 01:56:30;;;;;;;15.10;10.23;;;;;;;;;;4851981;29;20049;-81
2022/05/06 01:58:55;;;;;;;17.13;11.18;;;;;;;;;;4837826;29;21655;-84
2022/05/06 02:01:20;;;;;;;18.08;11.40;;;;;;;;;;4851778;29;20055;-80
2022/05/06 02:06:30;;;;;;;15.02;9.85;;;;;;;;;;4853795;29;20043;-78
2022/05/06 02:08:55;;;;;;;16.23;10.15;;;;;;;;;;4849242;29;20675;-83
2022/05/06 02:11:21;;;;;;;16.10;10.63;;;;;;;;;;4836360;29;20062;-83
2022/05/06 02:13:46;;;;;;;15.63;10.25;;;;;;;;;;4839362;29;20025;-83
2022/05/06 02:16:12;;;;;;;16.67;10.32;;;;;;;;;;4836442;29;20557;-85
2022/05/06 02:18:37;;;;;;;16.17;10.43;;;;;;;;;;4849762;29;20067;-83
2022/05/06 02:21:03;;;;;;;16.25;10.50;;;;;;;;;;4837181;29;20048;-84
2022/05/06 02:23:28;;;;;;;17.02;10.73;;;;;;;;;;4839153;29;20042;-85
2022/05/06 02:25:53;;;;;;;16.98;10.32;;;;;;;;;;4835960;29;20433;-84
2022/05/06 02:28:19;;;;;;;17.35;10.15;;;;;;;;;;4853288;29;20041;-81
2022/05/06 02:33:30;;;;;;;18.23;10.65;;;;;;;;;;4852462;29;20121;-80
2022/05/06 02:35:56;;;;;;;16.40;10.57;;;;;;;;;;4852430;29;20064;-79
2022/05/06 02:38:22;;;;;;;19.92;11.27;;;;;;;;;;4838286;29;20041;-84
2022/05/06 02:40:49;;;;;;;17.58;9.98;;;;;;;;;;4837428;29;20048;-85
2022/05/06 02:43:15;;;;;;;15.77;9.82;;;;;;;;;;4836949;29;20499;-85
2022/05/06 02:45:41;;;;;;;16.08;10.32;;;;;;;;;;4841653;29;20032;-81
2022/05/06 02:48:06;;;;;;;18.73;10.98;;;;;;;;;;4837124;29;20100;-83
2022/05/06 02:50:32;;;;;;;15.20;9.20;;;;;;;;;;4853464;29;20037;-84
2022/05/06 02:52:57;;;;;;;17.05;10.55;;;;;;;;;;4836266;29;20025;-81
2022/05/06 02:55:23;;;;;;;19.05;11.43;;;;;;;;;;4851638;29;20033;-84
2022/05/06 02:57:49;;;;;;;17.17;10.73;;;;;;;;;;4839903;29;20044;-83
2022/05/06 03:00:15;;;;;;;17.80;10.68;;;;;;;;;;4836332;29;20480;-84
2022/05/06 03:02:40;;;;;;;18.70;11.20;;;;;;;;;;4832102;29;20034;-83
2022/05/06 03:05:07;;;;;;;17.58;10.52;;;;;;;;;;4850601;29;20048;-84
2022/05/06 03:07:32;;;;;;;16.58;10.27;;;;;;;;;;4836592;29;20037;-83
2022/05/06 03:09:57;;;;;;;18.80;10.63;;;;;;;;;;4837233;29;20089;-83
2022/05/06 03:12:26;;;;;;;18.65;11.38;;;;;;;;;;4840148;29;20109;-83
2022/05/06 03:14:52;;;;;;;19.02;11.15;;;;;;;;;;4834850;29;20045;-83
2022/05/06 03:17:17;;;;;;;17.85;10.65;;;;;;;;;;4849431;29;20533;-84
2022/05/06 03:19:42;;;;;;;17.23;10.75;;;;;;;;;;4853241;29;20485;-84
2022/05/06 03:22:08;;;;;;;19.73;10.55;;;;;;;;;;4838244;29;20361;-83
2022/05/06 03:24:34;;;;;;;18.30;10.48;;;;;;;;;;4837377;29;20036;-79
2022/05/06 03:26:59;;;;;;;17.27;10.50;;;;;;;;;;4836535;29;20438;-79
2022/05/06 03:29:25;;;;;;;18.50;10.60;;;;;;;;;;4837327;29;20032;-80
2022/05/06 03:31:52;;;;;;;19.95;10.75;;;;;;;;;;4834524;29;20812;-79
2022/05/06 03:34:19;;;;;;;17.88;10.55;;;;;;;;;;4847892;29;20388;-83
2022/05/06 03:36:44;;;;;;;17.27;10.63;;;;;;;;;;4836197;29;20037;-80
2022/05/06 03:39:10;;;;;;;17.05;10.63;;;;;;;;;;4837094;29;20029;-84
2022/05/06 03:41:36;;;;;;;15.45;9.80;;;;;;;;;;4834801;29;20058;-78
2022/05/06 03:44:02;;;;;;;16.92;9.90;;;;;;;;;;4834866;29;20029;-83
2022/05/06 03:46:27;;;;;;;15.80;9.70;;;;;;;;;;4831034;29;21059;-80
2022/05/06 03:48:52;;;;;;;16.23;9.80;;;;;;;;;;4834345;29;20156;-83
2022/05/06 03:51:21;;;;;;;15.73;9.70;;;;;;;;;;4852457;29;20025;-80
2022/05/06 03:53:56;;;;;;;13.90;9.55;;;;;;;;;;4854717;29;20025;-81
2022/05/06 03:56:23;;;;;;;14.68;9.05;;;;;;;;;;4853270;29;20025;-80
2022/05/06 03:58:49;;;;;;;14.75;9.23;;;;;;;;;;4840622;29;20080;-84
2022/05/06 04:01:19;;;;;;;20.05;11.07;;;;;;;;;;4850851;29;20061;-83
2022/05/06 04:03:47;;;;;;;16.42;9.52;;;;;;;;;;4850406;29;20047;-83
2022/05/06 04:06:14;;;;;;;15.52;9.95;;;;;;;;;;4852599;29;20062;-80
2022/05/06 04:08:41;;;;;;;15.52;8.93;;;;;;;;;;4852913;29;20504;-78
2022/05/06 04:11:08;;;;;;;17.17;9.82;;;;;;;;;;4852050;29;20034;-84
2022/05/06 04:13:34;;;;;;;14.25;9.07;;;;;;;;;;4852928;29;20037;-78
2022/05/06 04:16:01;;;;;;;14.00;8.60;;;;;;;;;;4841588;29;22486;-83
2022/05/06 04:18:26;;;;;;;14.18;9.00;;;;;;;;;;4832696;29;20098;-82
2022/05/06 04:23:37;;;;;;;13.13;8.27;;;;;;;;;;4852952;29;20072;-80
2022/05/06 04:26:06;;;;;;;13.30;8.95;;;;;;;;;;4848403;29;20061;-78
2022/05/06 04:28:31;;;;;;;12.52;7.93;;;;;;;;;;4833548;29;20232;-80
2022/05/06 04:30:57;;;;;;;13.25;8.48;;;;;;;;;;4851648;29;20033;-81
2022/05/06 04:33:25;;;;;;;13.68;8.18;;;;;;;;;;4851350;29;20062;-83
2022/05/06 04:35:50;;;;;;;10.93;7.45;;;;;;;;;;4834523;29;20082;-81
2022/05/06 04:38:16;;;;;;;11.85;7.63;;;;;;;;;;4842445;29;20033;-81
2022/05/06 04:40:42;;;;;;;11.27;7.47;;;;;;;;;;4837121;29;20039;-86
2022/05/06 04:43:09;;;;;;;12.73;7.82;;;;;;;;;;4853447;29;20045;-85
2022/05/06 04:45:42;;;;;;;11.93;7.90;;;;;;;;;;4837955;29;20673;-80
2022/05/06 04:48:10;;;;;;;11.82;7.80;;;;;;;;;;4838151;29;20034;-82
2022/05/06 04:50:36;;;;;;;11.10;7.45;;;;;;;;;;4832831;29;20048;-85
2022/05/06 04:53:05;;;;;;;10.48;6.90;;;;;;;;;;4840382;29;20029;-83
2022/05/06 04:55:30;;;;;;;10.35;6.78;;;;;;;;;;4852270;29;20408;-83
2022/05/06 04:57:55;;;;;;;12.00;7.28;;;;;;;;;;4851903;29;20038;-84
2022/05/06 05:00:21;;;;;;;12.00;7.63;;;;;;;;;;4851103;29;20034;-80
2022/05/06 05:02:48;;;;;;;11.82;7.32;;;;;;;;;;4840055;29;20040;-83
2022/05/06 05:05:13;;;;;;;10.25;6.88;;;;;;;;;;4857961;29;20496;-83
2022/05/06 05:07:39;;;;;;;11.77;7.35;;;;;;;;;;4854238;29;20025;-78
2022/05/06 05:10:05;;;;;;;10.65;7.13;;;;;;;;;;4840112;29;20037;-86
2022/05/06 05:12:31;;;;;;;10.68;6.53;;;;;;;;;;4841308;29;20030;-79
2022/05/06 05:14:56;;;;;;;11.55;6.80;;;;;;;;;;4855875;29;20033;-80
2022/05/06 05:17:22;;;;;;;9.77;6.63;;;;;;;;;;4854979;29;20089;-80
2022/05/06 05:19:47;;;;;;;10.60;6.85;;;;;;;;;;4856118;29;20045;-86
2022/05/06 05:22:12;;;;;;;10.98;6.78;;;;;;;;;;4836801;29;20032;-79
2022/05/06 05:24:38;;;;;;;10.73;6.32;;;;;;;;;;4854565;29;20124;-86
2022/05/06 05:27:03;;;;;;;9.27;6.10;;;;;;;;;;4837128;29;20037;-78
2022/05/06 05:29:29;;;;;;;9.52;6.43;;;;;;;;;;4856002;29;20113;-83
2022/05/06 05:31:55;;;;;;;10.00;6.72;;;;;;;;;;4850797;29;20500;-83
2022/05/06 05:34:20;;;;;;;9.95;6.38;;;;;;;;;;4837362;29;20025;-78
2022/05/06 05:36:46;;;;;;;11.10;6.55;;;;;;;;;;4853423;29;20048;-79
2022/05/06 05:39:11;;;;;;;10.27;6.25;;;;;;;;;;4836861;29;20052;-78
2022/05/06 05:41:38;;;;;;;9.63;6.50;;;;;;;;;;4830654;29;20106;-83
2022/05/06 05:49:32;;;;;;;9.25;5.75;;;;;;;;;;4838646;29;20567;-84
2022/05/06 05:51:57;;;;;;;9.45;5.93;;;;;;;;;;4839232;29;20057;-86
2022/05/06 05:54:23;;;;;;;9.48;5.85;;;;;;;;;;4823317;29;20048;-84
2022/05/06 05:56:48;;;;;;;8.70;5.97;;;;;;;;;;4837287;29;20552;-87
2022/05/06 05:59:14;;;;;;;9.70;5.78;;;;;;;;;;4840562;29;20116;-86
2022/05/06 06:01:40;;;;;;;8.98;5.53;;;;;;;;;;4836404;29;20032;-80
2022/05/06 06:04:05;;;;;;;8.43;5.28;;;;;;;;;;4831610;29;20066;-83
2022/05/06 06:06:31;;;;;;;7.88;5.03;;;;;;;;;;4834200;29;20026;-84
2022/05/06 06:08:56;;;;;;;7.72;4.75;;;;;;;;;;4836910;29;20502;-80
2022/05/06 06:11:21;;;;;;;8.27;4.97;;;;;;;;;;4824383;29;20037;-77
2022/05/06 06:13:47;;;;;;;9.27;5.18;;;;;;;;;;4834810;29;20133;-81
2022/05/06 06:16:13;;;;;;;8.75;5.32;;;;;;;;;;4821131;29;20082;-78
2022/05/06 06:18:39;;;;;;;7.85;5.18;;;;;;;;;;4839160;29;20037;-84
2022/05/06 06:21:04;;;;;;;8.10;5.10;;;;;;;;;;4835155;29;20030;-84
2022/05/06 06:23:30;;;;;;;8.85;4.90;;;;;;;;;;4835717;29;20045;-81
2022/05/06 06:25:56;;;;;;;8.82;5.60;;;;;;;;;;4835868;29;20825;-80
2022/05/06 06:28:24;;;;;;;8.68;5.72;;;;;;;;;;4833064;29;20117;-83
2022/05/06 06:30:50;;;;;;;8.30;5.50;;;;;;;;;;4834448;29;20656;-85
2022/05/06 06:33:15;;;;;;;9.88;6.25;;;;;;;;;;4844683;29;20061;-78
2022/05/06 06:35:41;;;;;;;8.93;5.93;;;;;;;;;;4832872;29;20033;-81
2022/05/06 06:38:06;;;;;;;9.23;6.03;;;;;;;;;;4823138;29;20065;-80
2022/05/06 06:40:32;;;;;;;9.65;5.88;;;;;;;;;;4836094;29;20030;-86
2022/05/06 06:43:04;;;;;;;9.38;6.10;;;;;;;;;;4815551;29;20136;-80
2022/05/06 06:45:31;;;;;;;9.20;5.70;;;;;;;;;;4834255;29;20298;-80
2022/05/06 06:47:57;;;;;;;8.93;5.72;;;;;;;;;;4832125;29;20049;-80
2022/05/06 06:50:24;;;;;;;9.20;5.25;;;;;;;;;;4828825;29;20080;-83
2022/05/06 06:52:49;;;;;;;9.70;5.60;;;;;;;;;;4830320;29;20553;-80
2022/05/06 06:55:15;;;;;;;10.10;5.60;;;;;;;;;;4817607;29;20030;-79
2022/05/06 06:57:40;;;;;;;8.80;5.43;;;;;;;;;;4825248;29;20104;-81
2022/05/06 07:00:06;;;;;;;10.05;5.63;;;;;;;;;;4826826;29;20042;-83
2022/05/06 07:02:32;;;;;;;9.50;5.75;;;;;;;;;;4812407;29;20049;-81
2022/05/06 07:05:08;;;;;;;10.18;6.22;;;;;;;;;;4818354;29;20477;-79
2022/05/06 07:13:01;;;;;;;10.63;6.63;;;;;;;;;;4834190;29;20040;-85
2022/05/06 07:15:29;;;;;;;10.38;6.38;;;;;;;;;;4815607;29;21756;-85
2022/05/06 07:17:55;;;;;;;10.15;6.40;;;;;;;;;;4817781;29;20038;-85
2022/05/06 07:20:28;;;;;;;10.00;6.55;;;;;;;;;;4821126;29;20044;-79
2022/05/06 07:22:53;;;;;;;9.20;5.63;;;;;;;;;;4832464;29;20481;-85
2022/05/06 07:25:19;;;;;;;10.75;6.32;;;;;;;;;;4833933;29;20050;-79
2022/05/06 07:27:44;;;;;;;12.90;7.28;;;;;;;;;;4815810;29;20034;-79
2022/05/06 07:30:10;;;;;;;11.60;7.07;;;;;;;;;;4831841;29;20033;-83
2022/05/06 07:32:37;;;;;;;12.27;7.28;;;;;;;;;;4832724;29;20041;-79
2022/05/06 07:35:03;;;;;;;13.27;7.70;;;;;;;;;;4813372;29;20900;-83
2022/05/06 07:37:33;;;;;;;10.20;6.70;;;;;;;;;;4816275;29;20045;-80
2022/05/06 07:40:05;;;;;;;11.68;6.90;;;;;;;;;;4817805;29;20037;-84
2022/05/06 07:42:30;;;;;;;10.40;6.43;;;;;;;;;;4830264;29;20049;-83
2022/05/06 07:44:57;;;;;;;12.00;7.15;;;;;;;;;;4815329;29;20272;-80
2022/05/06 07:47:22;;;;;;;11.40;6.80;;;;;;;;;;4832024;29;20404;-84
2022/05/06 07:49:48;;;;;;;11.75;6.95;;;;;;;;;;4822316;29;20046;-82
2022/05/06 07:52:13;;;;;;;12.38;7.10;;;;;;;;;;4821390;29;20420;-83
2022/05/06 07:54:38;;;;;;;13.43;7.10;;;;;;;;;;4818129;29;21718;-83
2022/05/06 07:57:04;;;;;;;12.90;7.25;;;;;;;;;;4835287;29;20032;-83
2022/05/06 07:59:29;;;;;;;12.20;7.35;;;;;;;;;;4836731;29;20524;-83
2022/05/06 08:04:40;;;;;;;12.82;6.82;;;;;;;;;;4833596;29;20068;-83
2022/05/06 08:07:07;;;;;;;13.02;6.82;;;;;;;;;;4834877;29;20025;-80
2022/05/06 08:09:33;;;;;;;11.85;6.47;;;;;;;;;;4833476;29;20054;-79
2022/05/06 08:11:58;;;;;;;11.30;7.07;;;;;;;;;;4818970;29;20098;-81
2022/05/06 08:14:32;;;;;;;11.52;6.57;;;;;;;;;;4819377;29;20015;-82
2022/05/06 08:16:59;;;;;;;11.13;6.60;;;;;;;;;;4831337;29;20022;-82
2022/05/06 08:19:25;;;;;;;10.35;6.45;;;;;;;;;;4814055;29;20103;-82
2022/05/06 08:21:54;;;;;;;10.95;6.68;;;;;;;;;;4815418;29;20042;-84
2022/05/06 08:24:20;;;;;;;11.52;6.88;;;;;;;;;;4833646;29;20073;-83
2022/05/06 08:26:46;;;;;;;11.40;7.10;;;;;;;;;;4818086;29;20630;-84
2022/05/06 08:29:13;;;;;;;12.73;7.90;;;;;;;;;;4829745;29;20026;-80
2022/05/06 08:31:38;;;;;;;10.38;6.68;;;;;;;;;;4817688;29;20053;-84
2022/05/06 08:34:08;;;;;;;12.10;6.60;;;;;;;;;;4832389;29;20112;-83
2022/05/06 08:36:45;;;;;;;12.13;8.02;;;;;;;;;;4834730;29;20030;-81
2022/05/06 08:39:12;;;;;;;12.32;7.68;;;;;;;;;;4816347;29;20661;-80
2022/05/06 08:41:38;;;;;;;12.48;7.35;;;;;;;;;;4825222;29;20518;-83
2022/05/06 08:52:36;;;;;;;12.82;7.70;;;;;;;;;;4850765;29;20052;-80
2022/05/06 08:55:03;;;;;;;13.10;7.90;;;;;;;;;;4850443;29;20033;-81
2022/05/06 08:57:30;;;;;;;12.55;7.90;;;;;;;;;;4840746;29;20042;-83
2022/05/06 08:59:55;;;;;;;12.23;7.60;;;;;;;;;;4836641;29;20035;-82
2022/05/06 09:02:32;;;;;;;13.05;7.47;;;;;;;;;;4851486;29;20025;-83
2022/05/06 09:04:58;;;;;;;12.10;6.90;;;;;;;;;;4849911;29;20040;-79
2022/05/06 09:07:25;;;;;;;11.75;7.57;;;;;;;;;;4835289;29;20022;-83
2022/05/06 09:10:14;;;;;;;11.93;7.43;;;;;;;;;;4858555;29;20033;-81
2022/05/06 09:12:44;;;;;;;12.57;7.50;;;;;;;;;;4833154;29;20032;-80
2022/05/06 09:18:18;;;;;;;12.32;6.93;;;;;;;;;;4852285;29;20044;-81
2022/05/06 09:20:43;;;;;;;11.95;7.80;;;;;;;;;;4837880;29;20452;-81
2022/05/06 09:23:20;;;;;;;10.48;6.63;;;;;;;;;;4847991;29;20025;-83
2022/05/06 09:25:49;;;;;;;12.02;7.82;;;;;;;;;;4853990;29;20459;-83
2022/05/06 09:28:44;;;;;;;10.95;7.28;;;;;;;;;;4851463;29;20044;-82
2022/05/06 09:31:15;;;;;;;12.40;8.57;;;;;;;;;;4842669;29;20065;-84
2022/05/06 09:33:46;;;;;;;11.95;8.07;;;;;;;;;;4853053;29;20355;-80
2022/05/06 09:36:26;;;;;;;13.13;8.32;;;;;;;;;;4854772;29;20061;-85
2022/05/06 09:39:13;;;;;;;12.82;7.68;;;;;;;;;;4842394;29;20482;-83
2022/05/06 09:42:05;;;;;;;12.00;8.00;;;;;;;;;;4832647;29;20413;-81
2022/05/06 09:44:32;;;;;;;12.70;8.10;;;;;;;;;;4819832;29;20456;-83
2022/05/06 09:47:20;;;;;;;14.40;8.35;;;;;;;;;;4827903;29;20087;-81
2022/05/06 09:49:49;;;;;;;13.82;8.50;;;;;;;;;;4830956;29;21698;-80
2022/05/06 09:52:16;;;;;;;12.25;7.93;;;;;;;;;;4834771;29;20038;-83
2022/05/06 09:54:53;;;;;;;13.73;8.23;;;;;;;;;;4821234;29;20030;-81
2022/05/06 09:57:21;;;;;;;12.63;7.95;;;;;;;;;;4830668;29;20462;-81
2022/05/06 09:59:50;;;;;;;11.68;7.68;;;;;;;;;;4835588;29;20026;-81
2022/05/06 10:02:17;;;;;;;13.85;7.85;;;;;;;;;;4830649;29;20120;-79
2022/05/06 10:04:51;;;;;;;14.05;8.13;;;;;;;;;;4820811;29;20026;-83
2022/05/06 10:07:20;;;;;;;13.77;8.10;;;;;;;;;;4817989;29;20672;-80
2022/05/06 10:09:58;;;;;;;12.20;7.65;;;;;;;;;;4803357;29;20488;-82
2022/05/06 10:12:26;;;;;;;11.90;8.07;;;;;;;;;;4833494;29;20049;-81
2022/05/06 10:14:53;;;;;;;10.73;7.13;;;;;;;;;;4819229;29;20040;-82
2022/05/06 10:17:53;;;;;;;11.27;7.68;;;;;;;;;;4836114;29;20078;-80
2022/05/06 10:20:45;;;;;;;11.63;7.95;;;;;;;;;;4831551;29;20113;-80
2022/05/06 10:23:57;;;;;;;12.80;8.30;;;;;;;;;;4829846;29;20116;-82
2022/05/06 10:26:53;;;;;;;13.50;7.82;;;;;;;;;;4819159;29;20145;-80
2022/05/06 10:32:56;;;;;;;9.23;6.63;;;;;;;;;;4795980;29;20182;-83
2022/05/06 10:39:27;;;;;;;12.02;6.93;;;;;;;;;;4884969;24;20516;-80
2022/05/06 10:42:32;;;;;;;10.35;6.90;;;;;;;;;;4817942;29;20042;-80
2022/05/06 10:44:58;;;;;;;11.25;7.45;;;;;;;;;;4816058;29;20422;-83
2022/05/06 10:47:41;;;;;;;11.20;6.97;;;;;;;;;;4809579;29;20126;-83
2022/05/06 10:50:15;;;;;;;9.80;6.53;;;;;;;;;;4790101;29;20033;-82
2022/05/06 10:52:41;;;;;;;8.32;5.07;;;;;;;;;;4804597;29;20119;-79
2022/05/06 10:55:10;;;;;;;8.57;4.75;;;;;;;;;;4801747;29;20042;-79
2022/05/06 10:57:54;;;;;;;7.40;4.72;;;;;;;;;;4791967;29;20038;-79
2022/05/06 11:00:20;;;;;;;;;;;;;;;;;;4809962;29;20488;-77
2022/05/06 11:02:46;;;;;;;8.40;4.93;;;;;;;;;;4807080;29;20342;-77
2022/05/06 11:05:14;;;;;;;7.55;5.15;;;;;;;;;;4811081;29;20042;-77
2022/05/06 11:07:41;;;;;;;9.93;5.30;;;;;;;;;;4807264;29;20037;-79
2022/05/06 11:10:31;;;;;;;9.30;5.93;;;;;;;;;;4807478;29;20034;-78
2022/05/06 11:12:58;;;;;;;9.07;5.53;;;;;;;;;;4805941;29;20527;-77
2022/05/06 11:15:29;;;;;;;11.45;6.55;;;;;;;;;;4808038;29;20058;-82
2022/05/06 11:17:56;;;;;;;8.77;5.55;;;;;;;;;;4806790;29;20094;-79
2022/05/06 11:20:38;;;;;;;8.90;5.60;;;;;;;;;;4810181;29;20119;-78
2022/05/06 11:23:08;;;;;;;9.65;6.05;;;;;;;;;;4790417;29;20391;-77
2022/05/06 11:25:36;;;;;;;10.20;6.13;;;;;;;;;;4795819;29;21391;-78
2022/05/06 11:28:04;;;;;;;10.52;6.85;;;;;;;;;;4802227;29;20913;-77
2022/05/06 11:30:31;;;;;;;11.93;6.88;;;;;;;;;;4807083;29;20030;-82
2022/05/06 11:33:01;;;;;;;8.77;5.88;;;;;;;;;;4810108;29;20119;-80
2022/05/06 11:35:43;;;;;;;10.77;6.80;;;;;;;;;;4811208;29;20049;-79
2022/05/06 11:38:09;;;;;;;13.18;7.07;;;;;;;;;;4809126;29;20038;-78
2022/05/06 11:40:37;;;;;;;11.07;6.70;;;;;;;;;;4810143;29;20030;-79
2022/05/06 11:43:07;;;;;;;11.48;6.50;;;;;;;;;;4804160;29;20038;-79
2022/05/06 11:48:21;;;;;;;11.60;7.13;;;;;;;;;;4808670;29;20041;-80
2022/05/06 11:50:52;;;;;;;12.57;6.95;;;;;;;;;;4808304;29;20073;-78
2022/05/06 11:53:18;;;;;;;14.63;7.22;;;;;;;;;;4806965;29;20034;-82
2022/05/06 11:55:46;;;;;;;14.15;7.47;;;;;;;;;;4811161;29;20045;-78
2022/05/06 11:58:16;;;;;;;14.23;7.57;;;;;;;;;;4791379;29;20030;-76
2022/05/06 12:00:43;;;;;;;13.43;7.82;;;;;;;;;;4806731;29;20504;-78
2022/05/06 12:03:10;;;;;;;12.18;7.18;;;;;;;;;;4812984;29;20515;-77
2022/05/06 12:05:37;;;;;;;12.25;7.28;;;;;;;;;;4819181;29;20027;-82
2022/05/06 12:08:03;;;;;;;10.88;6.50;;;;;;;;;;4820203;29;20022;-78
2022/05/06 12:10:29;;;;;;;11.73;7.47;;;;;;;;;;4818307;29;20037;-76
2022/05/06 12:13:08;;;;;;;12.60;7.93;;;;;;;;;;4818468;29;20089;-78
2022/05/06 12:15:41;;;;;;;13.30;8.02;;;;;;;;;;4819151;29;20030;-77
2022/05/06 12:18:11;;;;;;;11.95;7.65;;;;;;;;;;4800608;29;20458;-77
2022/05/06 12:20:39;;;;;;;11.52;7.45;;;;;;;;;;4802906;29;20100;-77
2022/05/06 12:23:09;;;;;;;11.25;6.90;;;;;;;;;;4814018;29;20083;-78
2022/05/06 12:25:41;;;;;;;9.75;6.30;;;;;;;;;;4817390;29;20030;-80
2022/05/06 12:28:17;;;;;;;11.20;7.10;;;;;;;;;;4817052;29;20143;-78
2022/05/06 12:30:46;;;;;;;12.95;6.95;;;;;;;;;;4818380;29;20065;-83
2022/05/06 12:33:17;;;;;;;12.57;7.07;;;;;;;;;;4803289;29;20034;-82
2022/05/06 12:35:56;;;;;;;12.82;7.05;;;;;;;;;;4817418;29;20141;-77
2022/05/06 12:38:23;;;;;;;10.82;6.82;;;;;;;;;;4818583;29;20462;-83
2022/05/06 12:40:50;;;;;;;11.43;7.25;;;;;;;;;;4819315;29;20034;-78
2022/05/06 12:43:15;;;;;;;14.80;7.57;;;;;;;;;;4816783;29;20026;-80
2022/05/06 12:45:59;;;;;;;11.38;7.53;;;;;;;;;;4815434;29;20042;-77
2022/05/06 12:51:08;;;;;;;12.52;7.55;;;;;;;;;;4817861;29;20044;-77
2022/05/06 12:53:34;;;;;;;12.68;7.22;;;;;;;;;;4803306;29;20022;-77
2022/05/06 12:56:04;;;;;;;11.40;6.88;;;;;;;;;;4817353;29;20038;-77
2022/05/06 12:58:30;;;;;;;13.40;8.35;;;;;;;;;;4803524;29;20074;-77
2022/05/06 13:00:59;;;;;;;12.52;7.65;;;;;;;;;;4804294;29;20909;-78
2022/05/06 13:03:25;;;;;;;10.93;6.75;;;;;;;;;;4805259;29;20038;-77
2022/05/06 13:05:53;;;;;;;11.38;6.55;;;;;;;;;;4820890;29;20078;-79
2022/05/06 13:08:20;;;;;;;14.43;7.25;;;;;;;;;;4820592;29;20057;-80
2022/05/06 13:10:45;;;;;;;14.30;8.85;;;;;;;;;;4822032;29;20029;-80
2022/05/06 13:13:10;;;;;;;13.13;8.10;;;;;;;;;;4802669;29;20030;-79
2022/05/06 13:15:36;;;;;;;12.90;7.53;;;;;;;;;;4824751;29;20031;-77
2022/05/06 13:18:01;;;;;;;14.25;8.70;;;;;;;;;;4823725;29;20155;-77
2022/05/06 13:20:26;;;;;;;14.02;8.55;;;;;;;;;;4821669;29;20030;-77
2022/05/06 13:22:52;;;;;;;16.73;9.95;;;;;;;;;;4803003;29;20026;-79
2022/05/06 13:25:17;;;;;;;11.35;7.28;;;;;;;;;;4823373;29;20103;-79
2022/05/06 13:27:43;;;;;;;12.25;7.57;;;;;;;;;;4820656;29;20540;-83
2022/05/06 13:30:09;;;;;;;14.52;8.32;;;;;;;;;;4810173;29;20045;-80
2022/05/06 13:32:34;;;;;;;11.93;8.15;;;;;;;;;;4818816;29;20068;-76
2022/05/06 13:35:00;;;;;;;12.60;8.25;;;;;;;;;;4820602;29;20034;-80
2022/05/06 13:37:25;;;;;;;11.55;7.50;;;;;;;;;;4820181;29;20038;-77
2022/05/06 13:39:51;;;;;;;11.38;8.07;;;;;;;;;;4806715;29;20398;-80
2022/05/06 13:42:16;;;;;;;10.23;7.00;;;;;;;;;;4833762;29;20037;-76
2022/05/06 13:44:41;;;;;;;8.45;5.85;;;;;;;;;;4820712;29;20030;-81
2022/05/06 13:47:07;;;;;;;10.50;7.22;;;;;;;;;;4821131;29;20035;-83
2022/05/06 13:49:33;;;;;;;10.65;7.03;;;;;;;;;;4820903;29;20053;-77
2022/05/06 13:51:58;;;;;;;12.05;8.02;;;;;;;;;;4832376;29;20469;-76
2022/05/06 13:54:23;;;;;;;10.55;7.18;;;;;;;;;;4823078;29;20111;-76
2022/05/06 13:59:32;;;;;;;13.18;8.02;;;;;;;;;;4819678;29;20045;-80
2022/05/06 14:01:58;;;;;;;10.48;7.80;;;;;;;;;;4820742;29;20413;-78
2022/05/06 14:04:23;;;;;;;10.80;7.32;;;;;;;;;;4822307;29;20035;-83
2022/05/06 14:06:48;;;;;;;10.90;7.78;;;;;;;;;;4818743;29;20108;-77
2022/05/06 14:09:14;;;;;;;11.48;7.30;;;;;;;;;;4822256;29;20042;-83
2022/05/06 14:11:39;;;;;;;9.68;6.47;;;;;;;;;;4819295;29;20042;-77
2022/05/06 14:14:05;;;;;;;9.80;6.47;;;;;;;;;;4818520;29;20544;-83
2022/05/06 14:16:31;;;;;;;9.65;6.32;;;;;;;;;;4805575;29;20026;-78
2022/05/06 14:18:57;;;;;;;9.07;6.65;;;;;;;;;;4821063;29;20041;-83
2022/05/06 14:21:26;;;;;;;7.43;5.65;;;;;;;;;;4822792;29;20035;-81
2022/05/06 14:23:52;;;;;;;9.77;6.40;;;;;;;;;;4815669;29;20037;-81
2022/05/06 14:26:17;;;;;;;7.90;4.75;;;;;;;;;;4815429;29;20030;-78
2022/05/06 14:28:43;;;;;;;8.40;4.85;;;;;;;;;;4818851;29;20030;-76
2022/05/06 14:31:09;;;;;;;8.07;4.93;;;;;;;;;;4805327;29;20114;-83
2022/05/06 14:33:34;;;;;;;8.02;5.35;;;;;;;;;;4802401;29;20054;-77
2022/05/06 14:36:01;;;;;;;7.10;5.07;;;;;;;;;;4820654;29;20034;-80
2022/05/06 14:38:26;;;;;;;9.60;6.13;;;;;;;;;;4820996;29;20053;-77
2022/05/06 14:40:52;;;;;;;8.57;5.28;;;;;;;;;;4803933;29;20038;-77
2022/05/06 14:43:18;;;;;;;8.30;5.40;;;;;;;;;;4806590;29;20025;-81
2022/05/06 14:45:43;;;;;;;10.38;5.75;;;;;;;;;;4803589;29;20087;-78
2022/05/06 14:48:08;;;;;;;7.53;5.40;;;;;;;;;;4816178;29;20041;-76
2022/05/06 14:50:34;;;;;;;8.57;5.28;;;;;;;;;;4819236;29;20125;-83
2022/05/06 14:52:59;;;;;;;6.93;5.20;;;;;;;;;;4819798;29;20103;-77
2022/05/06 14:55:25;;;;;;;8.65;5.30;;;;;;;;;;4806314;29;20498;-80
2022/05/06 14:57:52;;;;;;;6.63;4.93;;;;;;;;;;4802906;29;20026;-80
2022/05/06 15:00:17;;;;;;;6.55;4.88;;;;;;;;;;4821460;29;20023;-80
2022/05/06 15:02:43;;;;;;;6.10;4.38;;;;;;;;;;4816984;29;20037;-82
2022/05/06 15:05:09;;;;;;;8.27;5.07;;;;;;;;;;4801545;29;20050;-78
2022/05/06 15:07:35;;;;;;;7.60;5.38;;;;;;;;;;4820921;29;20030;-81
2022/05/06 15:10:00;;;;;;;8.38;6.03;;;;;;;;;;4816742;29;20033;-81
2022/05/06 15:12:25;;;;;;;8.48;5.45;;;;;;;;;;4818259;29;20457;-82
2022/05/06 15:14:52;;;;;;;7.97;4.45;;;;;;;;;;4818207;29;20034;-78
2022/05/06 15:17:18;;;;;;;6.93;3.85;;;;;;;;;;4817926;29;20879;-81
2022/05/06 15:19:44;;;;;;;6.95;4.80;;;;;;;;;;4816959;29;20095;-80
2022/05/06 15:22:10;;;;;;;8.27;5.80;;;;;;;;;;4815426;29;20038;-78
2022/05/06 15:24:36;;;;;;;7.57;5.80;;;;;;;;;;4814316;29;20066;-77
2022/05/06 15:27:02;;;;;;;7.75;5.40;;;;;;;;;;4803449;29;20062;-80